Terminal Aerodrome Forecast
Issued by NWS

Home | Current Version | Previous Version | Text Only | Print | Product List | Glossary On
Versions: 1 2 3 4 5 6 7 8 9 10 11 12 13 14 15 16 17 18 19 20 21 22 23 24 25 26 27 28 29 30 31 32 33 34 35 36 37 38 39 40 41 42 43 44 45 46 47 48 49 50
000
FTUS46 KOTX 230702 AAA
TAFSFF
TAF AMD
KSFF 230702Z 2307/2406 VRB04KT 3SM BR FEW010
     FM230900 24005KT 3SM BR BKN010
     FM231500 20004KT 3SM -SN BKN016 OVC060
     FM231700 21008KT 5SM -SNRA BKN020 OVC040
     FM231900 22013KT P6SM -RA BKN020 OVC045
     FM240200 24005KT P6SM SCT030 BKN090=

USA.gov is the U.S. government's official web portal to all federal, state and local government web resources and services.